KMMI/MMI METAR and TAF weather

Enter ICAO airport designator
Station Type Date Time Source
KMMI METAR 2019/12/12 16:55 UTC NOAA

KMMI 121655Z AUTO 00000KT 10SM CLR 08/M02 A3049 RMK A01


Station Type Date Time Source
KMMI Decoded METAR 2019/12/12 16:55 UTC NOAA

Station name not available
Dec 12, 2019 - 11:55 AM EST / 2019.12.12 1655 UTC
Wind: Calm:0
Visibility: 10 mile(s):0
Sky conditions: clear
Temperature: 46 F (8 C)
Dew Point: 28 F (-2 C)
Relative Humidity: 49%
Pressure (altimeter): 30.49 in. Hg (1032 hPa)
ob: KMMI 121655Z AUTO 00000KT 10SM CLR 08/M02 A3049 RMK A01
cycle: 17

Station Type Date Time Source
KMMI TAF UTC NOAA

Error!

Example: see airport list